Time;durP1;ratioP1;P1;durP2;ratioP2;P2;SDS_P1;SDS_P2;PMS_P1;PMS_P2;Temp;Humidity;BMP_temperature;BMP_pressure;BME280_temperature;BME280_humidity;BME280_pressure;Samples;Min_cycle;Max_cycle;Signal;HPM_P1;HPM_P2
2024/01/16 00:00:54;;;;;;;39.15;19.90;;;;;;;2.71;90.62;96759.78;5094725;28;20201;-58
2024/01/16 00:03:19;;;;;;;31.05;19.77;;;;;;;3.24;91.60;96851.66;5094574;28;20188;-58
2024/01/16 00:05:45;;;;;;;31.55;18.10;;;;;;;2.65;92.23;96754.22;5094237;28;20623;-58
2024/01/16 00:08:10;;;;;;;28.15;17.42;;;;;;;3.21;92.79;96849.28;5094751;28;20203;-58
2024/01/16 00:10:36;;;;;;;25.88;15.55;;;;;;;2.70;92.94;96758.09;5094413;28;20553;-58
2024/01/16 00:13:01;;;;;;;27.88;16.60;;;;;;;3.03;93.19;96809.59;5094636;28;20591;-58
2024/01/16 00:15:26;;;;;;;27.73;16.27;;;;;;;2.87;92.97;96759.59;5094557;28;20630;-59
2024/01/16 00:17:53;;;;;;;25.13;15.20;;;;;;;2.88;93.29;96767.19;5094207;28;20295;-58
2024/01/16 00:20:18;;;;;;;23.88;14.25;;;;;;;3.24;93.36;96821.00;5094602;28;20264;-58
2024/01/16 00:22:44;;;;;;;23.52;14.07;;;;;;;2.87;93.20;96764.72;5094489;28;20200;-58
2024/01/16 00:25:09;;;;;;;22.83;13.82;;;;;;;3.25;93.02;96827.75;5094466;28;20176;-59
2024/01/16 00:27:36;;;;;;;21.77;14.02;;;;;;;3.19;92.76;96796.66;5094088;28;20230;-58
2024/01/16 00:30:01;;;;;;;24.02;13.68;;;;;;;2.94;91.39;96737.84;5094302;28;20191;-58
2024/01/16 00:32:27;;;;;;;23.25;14.27;;;;;;;2.87;91.57;96732.31;5094276;28;20169;-58
2024/01/16 00:34:52;;;;;;;21.00;12.48;;;;;;;3.14;90.99;96771.41;5093937;28;20546;-58
2024/01/16 00:37:18;;;;;;;18.70;12.85;;;;;;;3.16;90.97;96790.00;5094120;28;20204;-58
2024/01/16 00:39:43;;;;;;;17.20;11.25;;;;;;;2.99;91.46;96762.16;5094069;28;20180;-58
2024/01/16 00:42:09;;;;;;;21.00;11.80;;;;;;;3.31;92.20;96822.22;5094026;28;20176;-58
2024/01/16 00:44:34;;;;;;;29.80;14.55;;;;;;;2.80;92.37;96733.63;5094027;28;20247;-58
2024/01/16 00:47:01;;;;;;;21.13;12.75;;;;;;;3.21;92.96;96821.19;5094385;28;20175;-58
2024/01/16 00:49:28;;;;;;;23.02;13.35;;;;;;;3.16;93.42;96828.31;5093923;28;20272;-58
2024/01/16 00:51:53;;;;;;;20.85;11.68;;;;;;;3.19;93.59;96819.63;5093917;28;20177;-58
2024/01/16 00:54:19;;;;;;;16.60;11.02;;;;;;;3.01;93.37;96793.56;5051132;28;20416;-58
2024/01/16 00:56:44;;;;;;;17.27;11.35;;;;;;;2.93;92.58;96770.22;5051122;28;20178;-58
2024/01/16 00:59:09;;;;;;;15.95;10.93;;;;;;;2.93;92.79;96774.53;5051057;28;20594;-59
2024/01/16 01:01:37;;;;;;;15.10;10.30;;;;;;;3.16;93.12;96805.31;5050786;28;20579;-58
2024/01/16 01:04:03;;;;;;;20.95;11.75;;;;;;;2.91;93.36;96753.38;5051060;28;20420;-58
2024/01/16 01:06:28;;;;;;;17.45;11.88;;;;;;;3.01;93.00;96778.22;5051024;28;20261;-59
2024/01/16 01:08:54;;;;;;;23.83;13.90;;;;;;;2.90;93.13;96746.63;5050935;28;20194;-58
2024/01/16 01:11:19;;;;;;;21.33;13.63;;;;;;;2.86;92.84;96747.75;5050990;28;20361;-58
2024/01/16 01:13:45;;;;;;;24.35;15.38;;;;;;;3.07;92.82;96779.56;5050938;28;20205;-58
2024/01/16 01:16:10;;;;;;;25.85;14.95;;;;;;;2.84;93.00;96762.34;5049949;28;20218;-58
2024/01/16 01:18:36;;;;;;;28.13;15.68;;;;;;;2.86;93.36;96794.53;5050535;28;20241;-58
2024/01/16 01:21:01;;;;;;;28.67;16.98;;;;;;;2.64;94.02;96755.94;5050747;28;20269;-58
2024/01/16 01:23:26;;;;;;;29.90;16.83;;;;;;;2.99;93.29;96797.13;5050667;28;20181;-58
2024/01/16 01:25:52;;;;;;;30.67;18.23;;;;;;;3.02;92.84;96789.25;5082190;28;20192;-58
2024/01/16 01:28:17;;;;;;;32.85;17.83;;;;;;;2.56;92.41;96739.50;5093232;28;20188;-59
2024/01/16 01:30:43;;;;;;;30.77;17.50;;;;;;;2.31;94.04;96739.41;5093124;28;20183;-58
2024/01/16 01:33:08;;;;;;;28.10;17.05;;;;;;;2.29;94.65;96747.13;5093062;28;20200;-59
2024/01/16 01:35:34;;;;;;;26.95;15.68;;;;;;;2.72;94.00;96798.88;5093117;28;20172;-58
2024/01/16 01:37:59;;;;;;;28.33;16.67;;;;;;;2.84;92.85;96806.59;5092923;28;20207;-59
2024/01/16 01:40:25;;;;;;;25.98;16.73;;;;;;;2.70;92.02;96778.53;5093012;28;20172;-58
2024/01/16 01:42:50;;;;;;;31.90;17.10;;;;;;;2.64;92.03;96778.91;5092694;28;20211;-58
2024/01/16 01:45:16;;;;;;;33.80;16.25;;;;;;;2.06;92.58;96689.06;5092829;28;20230;-58
2024/01/16 01:47:44;;;;;;;26.67;16.27;;;;;;;2.53;93.24;96771.16;5050028;28;20689;-58
2024/01/16 01:50:10;;;;;;;26.48;16.25;;;;;;;2.36;93.50;96733.09;5050194;28;20220;-58
2024/01/16 01:52:39;;;;;;;29.67;17.05;;;;;;;2.42;94.41;96758.25;5050178;28;20200;-58
2024/01/16 01:55:08;;;;;;;28.13;16.80;;;;;;;1.83;94.65;96674.41;5050036;28;20664;-58
2024/01/16 01:57:34;;;;;;;29.52;15.90;;;;;;;1.91;94.64;96674.75;5050018;28;20268;-58
2024/01/16 02:00:00;;;;;;;22.08;14.50;;;;;;;2.52;94.91;96769.47;5049427;28;20177;-58
2024/01/16 02:02:26;;;;;;;22.08;14.10;;;;;;;2.52;94.21;96769.47;5016846;28;20722;-58
2024/01/16 02:04:52;;;;;;;19.67;12.40;;;;;;;2.18;94.10;96713.84;5050014;28;20681;-58
2024/01/16 02:07:18;;;;;;;11.82;8.10;;;;;;;2.13;93.78;96690.34;5049960;28;20375;-58
2024/01/16 02:09:44;;;;;;;26.60;14.55;;;;;;;2.89;89.51;96790.97;5049957;28;20561;-58
2024/01/16 02:12:09;;;;;;;28.05;16.13;;;;;;;2.49;87.46;96720.38;5049840;28;20316;-58
2024/01/16 02:14:35;;;;;;;23.92;13.93;;;;;;;2.60;87.88;96754.53;5049972;28;20178;-58
2024/01/16 02:17:00;;;;;;;27.67;15.07;;;;;;;2.59;88.88;96744.41;5049745;28;20212;-59
2024/01/16 02:19:25;;;;;;;20.77;12.43;;;;;;;2.64;89.98;96761.06;5084721;28;20192;-58
2024/01/16 02:21:54;;;;;;;20.95;12.68;;;;;;;2.93;90.67;96794.97;5092377;28;20184;-58
2024/01/16 02:24:21;;;;;;;21.35;12.73;;;;;;;2.47;90.48;96727.31;5092238;28;20673;-58
2024/01/16 02:26:47;;;;;;;23.35;12.63;;;;;;;2.37;90.75;96708.38;5091960;28;20662;-58
2024/01/16 02:29:13;;;;;;;16.10;12.52;;;;;;;2.67;90.35;96753.22;5091961;28;20559;-58
2024/01/16 02:31:38;;;;;;;21.20;12.00;;;;;;;2.63;90.55;96761.97;5092205;28;20672;-58
2024/01/16 02:34:04;;;;;;;19.15;12.02;;;;;;;2.25;90.99;96720.19;5092220;28;20176;-58
2024/01/16 02:36:29;;;;;;;19.50;12.75;;;;;;;2.80;91.42;96819.66;5092268;28;20612;-59
2024/01/16 02:38:55;;;;;;;20.60;12.60;;;;;;;2.67;91.26;96817.03;5091502;28;20188;-58
2024/01/16 02:41:20;;;;;;;23.65;13.15;;;;;;;2.38;91.78;96777.19;5092191;28;20174;-58
2024/01/16 02:43:46;;;;;;;21.02;13.13;;;;;;;2.66;92.69;96828.16;5092148;28;20551;-59
2024/01/16 02:46:12;;;;;;;19.13;12.43;;;;;;;2.54;93.00;96833.22;5049421;28;20210;-58
2024/01/16 02:48:38;;;;;;;17.77;11.57;;;;;;;2.26;93.57;96788.16;5049409;28;20197;-58
2024/01/16 02:51:04;;;;;;;18.40;11.93;;;;;;;1.93;93.78;96739.22;5049483;28;20190;-58
2024/01/16 02:53:31;;;;;;;18.45;11.82;;;;;;;2.53;94.22;96837.50;5049467;28;20177;-59
2024/01/16 02:55:59;;;;;;;16.17;11.07;;;;;;;1.97;94.19;96763.63;5046697;28;20190;-58
2024/01/16 02:58:28;;;;;;;17.02;11.82;;;;;;;1.86;94.24;96732.00;5049282;28;20225;-58
2024/01/16 03:00:55;;;;;;;16.30;10.63;;;;;;;1.97;94.25;96735.56;5049352;28;20317;-59
2024/01/16 03:03:21;;;;;;;18.67;11.60;;;;;;;2.45;94.35;96813.38;5049375;28;20258;-59
2024/01/16 03:05:47;;;;;;;17.67;11.23;;;;;;;2.17;94.74;96768.31;5049345;28;20693;-58
2024/01/16 03:08:12;;;;;;;15.88;11.07;;;;;;;2.50;94.72;96826.63;5049324;28;20208;-58
2024/01/16 03:10:38;;;;;;;17.92;10.88;;;;;;;2.21;94.70;96785.06;5049222;28;20684;-58
2024/01/16 03:13:03;;;;;;;16.15;10.85;;;;;;;2.53;94.84;96834.97;5049564;28;20287;-59
2024/01/16 03:15:32;;;;;;;14.75;10.63;;;;;;;2.06;94.32;96729.88;5049161;28;20277;-58
2024/01/16 03:17:58;;;;;;;17.80;10.35;;;;;;;2.69;94.36;96835.63;5065446;28;20217;-58
2024/01/16 03:20:24;;;;;;;15.63;9.70;;;;;;;2.47;94.11;96786.00;5069249;28;20200;-58
2024/01/16 03:22:49;;;;;;;17.70;9.82;;;;;;;2.07;94.32;96720.50;5069182;28;20557;-58
2024/01/16 03:25:16;;;;;;;14.70;9.93;;;;;;;2.30;94.30;96759.00;5069177;28;20185;-58
2024/01/16 03:27:41;;;;;;;15.45;9.80;;;;;;;2.30;94.55;96751.34;5069168;28;20647;-58
2024/01/16 03:30:08;;;;;;;14.23;8.73;;;;;;;2.48;94.62;96783.38;5069119;28;20209;-59
2024/01/16 03:32:34;;;;;;;13.43;8.40;;;;;;;2.34;94.58;96745.13;5069084;28;20177;-58
2024/01/16 03:35:00;;;;;;;10.98;6.30;;;;;;;2.57;94.51;96780.22;5069333;28;20588;-58
2024/01/16 03:37:25;;;;;;;8.00;5.80;;;;;;;2.57;94.94;96779.44;5068925;28;20212;-58
2024/01/16 03:39:50;;;;;;;5.00;4.07;;;;;;;2.99;95.58;96823.47;5070722;28;20181;-58
2024/01/16 03:42:16;;;;;;;4.53;3.38;;;;;;;2.67;96.45;96768.53;5072527;28;20188;-58
2024/01/16 03:44:42;;;;;;;3.88;3.45;;;;;;;3.15;97.22;96825.88;5072849;28;20185;-58
2024/01/16 03:47:08;;;;;;;3.40;3.10;;;;;;;2.56;97.48;96712.22;5089759;28;20269;-59
2024/01/16 03:49:34;;;;;;;3.40;3.10;;;;;;;2.78;98.33;96726.97;5095082;28;20267;-59
2024/01/16 03:51:59;;;;;;;5.68;3.80;;;;;;;3.07;97.93;96780.38;5095079;28;20207;-59
2024/01/16 03:54:25;;;;;;;3.97;3.58;;;;;;;2.94;97.34;96771.88;5094702;28;20183;-59
2024/01/16 03:56:51;;;;;;;4.78;3.95;;;;;;;2.86;96.69;96756.22;5094979;28;20176;-58
2024/01/16 03:59:16;;;;;;;5.43;3.92;;;;;;;2.95;96.56;96782.91;5094865;28;20258;-58
2024/01/16 04:01:43;;;;;;;4.68;4.05;;;;;;;3.25;96.47;96844.78;5094943;28;20179;-59
2024/01/16 04:04:10;;;;;;;5.72;5.13;;;;;;;3.05;96.74;96825.66;5094789;28;20169;-58
2024/01/16 04:06:36;;;;;;;4.18;3.78;;;;;;;2.93;96.17;96800.88;5094843;28;20173;-58
2024/01/16 04:09:02;;;;;;;5.63;4.28;;;;;;;2.91;95.86;96810.38;5094700;28;20268;-59
2024/01/16 04:11:28;;;;;;;5.38;4.40;;;;;;;2.91;96.01;96812.94;5094643;28;20700;-59
2024/01/16 04:13:53;;;;;;;6.60;4.90;;;;;;;2.88;96.39;96810.59;5094608;28;20211;-58
2024/01/16 04:16:19;;;;;;;6.38;4.75;;;;;;;2.83;96.76;96815.16;5094379;28;20661;-58
2024/01/16 04:18:44;;;;;;;8.60;5.30;;;;;;;2.84;97.19;96832.13;5094552;28;20697;-59
2024/01/16 04:21:10;;;;;;;6.10;5.00;;;;;;;3.44;97.50;96932.97;5094477;28;20551;-58
2024/01/16 04:23:36;;;;;;;7.75;5.65;;;;;;;3.50;97.17;96924.91;5094380;28;20188;-58
2024/01/16 04:26:02;;;;;;;9.23;5.80;;;;;;;3.47;97.32;96912.34;5094412;28;20176;-58
2024/01/16 04:28:28;;;;;;;9.50;5.10;;;;;;;3.41;97.58;96906.78;5094687;28;20180;-59
2024/01/16 04:30:53;;;;;;;9.75;6.57;;;;;;;2.99;97.67;96843.09;5094325;28;20547;-59
2024/01/16 04:33:19;;;;;;;7.85;5.82;;;;;;;3.05;97.69;96851.22;5094313;28;20172;-59
2024/01/16 04:35:44;;;;;;;8.60;7.35;;;;;;;3.27;97.50;96873.66;5093984;28;20172;-59
2024/01/16 04:38:10;;;;;;;11.80;6.70;;;;;;;3.71;97.57;96944.00;5094083;28;20233;-59
2024/01/16 04:40:35;;;;;;;8.95;6.07;;;;;;;3.14;97.78;96845.50;5094166;28;20527;-58
2024/01/16 04:43:01;;;;;;;12.45;7.38;;;;;;;3.70;98.25;96942.38;5094040;28;20183;-58
2024/01/16 04:45:28;;;;;;;14.98;9.43;;;;;;;3.70;98.70;96942.38;5093958;28;20202;-59
2024/01/16 04:47:53;;;;;;;10.85;7.72;;;;;;;3.25;98.93;96872.91;5093965;28;20630;-59
2024/01/16 04:50:19;;;;;;;10.60;7.13;;;;;;;3.47;99.52;96909.78;5093701;28;20650;-57
2024/01/16 04:52:44;;;;;;;10.68;6.85;;;;;;;3.14;99.71;96860.81;5093868;28;20181;-59
2024/01/16 04:55:10;;;;;;;6.50;4.57;;;;;;;3.49;100.00;96892.59;5093931;28;20184;-59
2024/01/16 04:57:35;;;;;;;3.58;3.17;;;;;;;3.82;100.00;96926.22;5093742;28;20573;-59
2024/01/16 05:00:01;;;;;;;5.32;4.07;;;;;;;3.59;100.00;96893.66;5093741;28;20176;-58
2024/01/16 05:02:26;;;;;;;6.88;4.70;;;;;;;3.77;96.55;96922.31;5093702;28;20183;-58
2024/01/16 05:04:52;;;;;;;5.35;3.67;;;;;;;3.49;97.42;96877.25;5093631;28;20181;-58
2024/01/16 05:07:20;;;;;;;4.45;3.90;;;;;;;4.11;97.18;96968.63;5093588;28;20204;-59
2024/01/16 05:09:46;;;;;;;5.72;3.88;;;;;;;3.58;97.64;96892.03;5093156;28;20179;-59
2024/01/16 05:12:11;;;;;;;4.75;3.78;;;;;;;3.90;97.66;96941.06;5093173;28;20176;-58
2024/01/16 05:14:37;;;;;;;4.25;3.85;;;;;;;3.91;97.18;96937.59;5093170;28;20191;-58
2024/01/16 05:17:02;;;;;;;4.28;3.80;;;;;;;4.15;97.83;96985.41;5093080;28;20192;-59
2024/01/16 05:19:28;;;;;;;5.82;4.90;;;;;;;3.71;97.97;96902.25;5093143;28;20240;-59
2024/01/16 05:21:54;;;;;;;38.83;20.83;;;;;;;4.07;97.24;96941.59;5092982;28;20293;-58
2024/01/16 05:24:19;;;;;;;28.48;15.40;;;;;;;4.30;97.14;96961.34;5092863;28;20180;-58
2024/01/16 05:26:45;;;;;;;28.33;14.00;;;;;;;4.34;97.16;96975.59;5092918;28;20179;-58
2024/01/16 05:29:11;;;;;;;14.90;8.10;;;;;;;4.21;96.93;96954.28;5092547;28;20256;-58
2024/01/16 05:31:41;;;;;;;6.72;4.82;;;;;;;4.46;97.63;96999.56;5088049;28;20184;-58
2024/01/16 05:34:07;;;;;;;8.38;5.18;;;;;;;4.47;98.29;97002.03;5092754;28;20561;-58
2024/01/16 05:36:33;;;;;;;6.65;5.10;;;;;;;3.99;98.07;96918.25;5049984;28;20660;-58
2024/01/16 05:38:58;;;;;;;12.25;7.10;;;;;;;4.18;97.41;96946.81;5050023;28;20731;-58
2024/01/16 05:41:24;;;;;;;10.15;6.93;;;;;;;4.08;97.54;96932.19;5050052;28;20680;-58
2024/01/16 05:43:49;;;;;;;9.73;7.57;;;;;;;4.39;98.03;96999.16;5049994;28;20182;-58
2024/01/16 05:46:14;;;;;;;20.58;12.52;;;;;;;3.98;98.49;96947.28;5050017;28;20256;-58
2024/01/16 05:48:40;;;;;;;28.25;12.90;;;;;;;4.32;98.41;97007.34;5049764;28;20228;-58
2024/01/16 05:51:05;;;;;;;18.17;9.90;;;;;;;4.60;98.55;97074.53;5049824;28;20581;-58
2024/01/16 05:53:31;;;;;;;35.47;18.75;;;;;;;4.69;97.47;97098.72;5049687;28;20726;-58
2024/01/16 05:55:56;;;;;;;32.63;18.85;;;;;;;4.36;95.99;97050.56;5049750;28;20182;-59
2024/01/16 05:58:22;;;;;;;35.58;21.15;;;;;;;4.70;90.38;97124.25;5049567;28;20209;-58
2024/01/16 06:00:47;;;;;;;31.88;20.80;;;;;;;4.57;88.72;97117.47;5049602;28;20252;-59
2024/01/16 06:03:13;;;;;;;33.03;19.25;;;;;;;4.25;90.03;97082.91;5009505;28;20179;-58
2024/01/16 06:05:38;;;;;;;119.95;48.25;;;;;;;4.37;89.36;97133.31;5009895;28;20191;-58
2024/01/16 06:08:04;;;;;;;51.67;26.88;;;;;;;3.87;88.99;97059.75;4970739;28;20279;-59
2024/01/16 06:10:30;;;;;;;42.78;24.65;;;;;;;4.13;89.88;97135.69;4970860;28;20188;-59
2024/01/16 06:12:55;;;;;;;43.00;24.80;;;;;;;3.45;90.52;97043.72;4973303;28;20188;-59
2024/01/16 06:15:20;;;;;;;42.53;24.00;;;;;;;3.70;91.52;97089.84;5009696;28;20182;-59
2024/01/16 06:17:46;;;;;;;37.55;22.42;;;;;;;3.91;93.01;97144.81;5009249;28;20548;-59
2024/01/16 06:20:11;;;;;;;34.78;21.83;;;;;;;3.42;94.07;97043.91;5009880;28;20167;-59
2024/01/16 06:22:37;;;;;;;29.13;18.02;;;;;;;3.74;98.26;97096.44;5009987;28;20187;-59
2024/01/16 06:25:03;;;;;;;23.83;15.15;;;;;;;3.32;99.07;97037.75;5008522;28;20191;-58
2024/01/16 06:27:28;;;;;;;10.13;7.32;;;;;;;4.23;100.00;97146.16;5009377;28;20207;-59
2024/01/16 06:29:53;;;;;;;14.18;9.90;;;;;;;4.05;100.00;97086.75;5009322;28;20198;-58
2024/01/16 06:32:19;;;;;;;2.53;2.33;;;;;;;4.61;100.00;97106.13;5009416;28;20186;-58
2024/01/16 06:34:44;;;;;;;3.40;2.25;;;;;;;5.43;100.00;97186.81;4984203;28;20281;-59
2024/01/16 06:37:10;;;;;;;2.15;1.98;;;;;;;5.74;100.00;97153.84;4970068;28;20197;-58
2024/01/16 06:39:36;;;;;;;2.53;2.33;;;;;;;5.79;100.00;97146.66;4970210;28;20203;-58
2024/01/16 06:42:04;;;;;;;3.65;2.70;;;;;;;5.80;100.00;97122.66;4970288;28;20244;-60
2024/01/16 06:44:30;;;;;;;3.22;2.80;;;;;;;6.21;100.00;97177.03;4970040;28;20200;-58
2024/01/16 06:46:55;;;;;;;3.38;2.92;;;;;;;6.32;100.00;97181.41;4970228;28;20645;-59
2024/01/16 06:49:21;;;;;;;9.02;4.85;;;;;;;6.37;100.00;97185.31;4970160;28;20200;-59
2024/01/16 06:51:46;;;;;;;2.78;2.58;;;;;;;6.42;100.00;97178.06;4970220;28;20215;-59
2024/01/16 06:54:11;;;;;;;3.00;2.80;;;;;;;6.31;100.00;97152.34;4970171;28;20556;-58
2024/01/16 06:56:37;;;;;;;2.53;2.33;;;;;;;6.94;100.00;97236.84;4970210;28;20637;-59
2024/01/16 06:59:02;;;;;;;3.08;2.88;;;;;;;6.73;100.00;97210.94;4970006;28;20677;-58
2024/01/16 07:01:28;;;;;;;2.97;2.30;;;;;;;7.15;100.00;97266.94;4970182;28;20193;-59
2024/01/16 07:03:53;;;;;;;2.50;2.30;;;;;;;7.22;100.00;97270.69;4970126;28;20195;-59
2024/01/16 07:06:19;;;;;;;2.78;2.58;;;;;;;7.22;100.00;97257.84;5013694;28;20289;-59
2024/01/16 07:08:45;;;;;;;2.42;2.22;;;;;;;7.18;100.00;97259.00;5028767;28;20657;-59
2024/01/16 07:11:13;;;;;;;29.85;9.93;;;;;;;7.28;100.00;97275.41;5028776;28;20269;-58
2024/01/16 07:13:39;;;;;;;3.65;3.08;;;;;;;7.30;100.00;97260.69;5034306;28;20224;-58
2024/01/16 07:16:04;;;;;;;2.97;2.70;;;;;;;7.52;100.00;97298.50;5074039;28;20189;-59
2024/01/16 07:18:30;;;;;;;2.75;2.40;;;;;;;7.58;99.06;97293.72;5074723;28;20697;-59
2024/01/16 07:20:55;;;;;;;2.75;2.55;;;;;;;7.22;98.56;97237.25;5074917;28;20177;-59
2024/01/16 07:23:21;;;;;;;2.97;2.53;;;;;;;7.64;98.88;97316.44;5074745;28;20177;-59
2024/01/16 07:25:46;;;;;;;2.38;2.17;;;;;;;7.36;98.62;97274.84;5074775;28;20181;-59
2024/01/16 07:28:12;;;;;;;2.35;2.22;;;;;;;7.44;97.63;97270.75;5074436;28;20188;-58
2024/01/16 07:30:37;;;;;;;2.47;2.30;;;;;;;7.41;96.31;97245.25;5073882;28;20177;-59
2024/01/16 07:33:03;;;;;;;2.20;2.08;;;;;;;7.88;95.63;97340.38;5073446;28;20185;-58
2024/01/16 07:35:29;;;;;;;2.53;2.33;;;;;;;8.02;94.81;97355.59;5074770;28;20183;-59
2024/01/16 07:37:55;;;;;;;3.72;2.15;;;;;;;7.49;93.89;97262.69;5074604;28;20197;-59
2024/01/16 07:40:20;;;;;;;2.10;2.00;;;;;;;7.64;93.21;97290.69;5074394;28;20655;-59
2024/01/16 07:42:46;;;;;;;2.30;2.20;;;;;;;7.86;92.37;97329.34;5074728;28;20219;-59
2024/01/16 07:45:11;;;;;;;2.28;2.15;;;;;;;7.61;92.90;97308.09;5074563;28;20227;-59
2024/01/16 07:47:37;;;;;;;2.35;2.25;;;;;;;8.00;93.49;97365.22;5074592;28;20181;-59
2024/01/16 07:50:03;;;;;;;2.67;2.47;;;;;;;8.09;94.48;97390.25;5074486;28;20176;-58
2024/01/16 07:52:28;;;;;;;5.60;3.63;;;;;;;8.07;94.66;97394.72;5032120;28;20322;-59
2024/01/16 07:54:54;;;;;;;2.75;2.50;;;;;;;7.85;95.90;97386.94;5032176;28;20214;-59
2024/01/16 07:57:20;;;;;;;6.15;3.70;;;;;;;7.91;96.52;97401.94;5032039;28;20269;-58
2024/01/16 07:59:46;;;;;;;4.57;3.72;;;;;;;7.67;97.07;97383.13;5032498;28;20191;-57
2024/01/16 08:02:11;;;;;;;3.20;2.92;;;;;;;7.87;96.82;97425.47;5042361;28;20237;-59
2024/01/16 08:04:37;;;;;;;2.88;2.40;;;;;;;7.78;96.68;97411.50;5031615;28;20186;-58
2024/01/16 08:07:03;;;;;;;2.10;2.00;;;;;;;7.60;95.70;97394.81;5031581;28;20197;-58
2024/01/16 08:09:29;;;;;;;1.75;1.65;;;;;;;7.75;95.03;97426.34;5031523;28;20194;-58
2024/01/16 08:11:54;;;;;;;3.63;3.10;;;;;;;7.34;95.80;97379.63;5031577;28;20193;-58
2024/01/16 08:14:19;;;;;;;3.03;2.80;;;;;;;7.31;95.02;97375.53;5031421;28;20217;-58
2024/01/16 08:16:45;;;;;;;4.20;3.25;;;;;;;7.82;94.96;97454.09;5030286;28;20179;-58
2024/01/16 08:19:10;;;;;;;5.22;3.10;;;;;;;7.56;94.45;97421.69;5030795;28;20814;-59
2024/01/16 08:21:36;;;;;;;2.97;2.67;;;;;;;7.53;94.54;97411.66;5031137;28;20182;-57
2024/01/16 08:24:02;;;;;;;2.33;2.22;;;;;;;7.43;91.67;97390.06;5062641;28;20276;-59
2024/01/16 08:26:28;;;;;;;2.10;2.00;;;;;;;7.58;89.05;97399.25;5073287;28;20197;-57
2024/01/16 08:28:53;;;;;;;1.75;1.67;;;;;;;7.62;88.09;97400.66;5074729;28;20188;-57
2024/01/16 08:31:19;;;;;;;2.00;1.90;;;;;;;7.95;88.62;97454.03;5093669;28;20172;-57
2024/01/16 08:33:45;;;;;;;1.98;1.63;;;;;;;8.06;85.78;97457.47;5090865;28;20267;-59
2024/01/16 08:36:11;;;;;;;2.97;2.17;;;;;;;8.33;86.55;97504.41;5093805;28;20179;-58
2024/01/16 08:38:36;;;;;;;1.92;1.83;;;;;;;8.12;83.97;97458.78;5093494;28;20590;-58
2024/01/16 08:41:06;;;;;;;1.90;1.80;;;;;;;7.94;83.60;97419.75;5093775;28;20659;-58
2024/01/16 08:43:31;;;;;;;1.77;1.67;;;;;;;8.15;80.02;97454.22;5093647;28;20183;-58
2024/01/16 08:45:57;;;;;;;1.88;1.77;;;;;;;8.55;78.60;97521.69;5093747;28;20176;-59
2024/01/16 08:48:22;;;;;;;2.47;2.28;;;;;;;8.14;79.35;97444.00;5050860;28;20236;-58
2024/01/16 08:50:48;;;;;;;1.80;1.70;;;;;;;8.62;78.57;97531.44;5051029;28;20178;-58
2024/01/16 08:53:13;;;;;;;1.95;1.85;;;;;;;7.94;77.66;97430.06;5051049;28;20277;-58
2024/01/16 08:55:38;;;;;;;2.55;1.98;;;;;;;8.32;76.98;97492.47;5050888;28;20240;-58
2024/01/16 08:58:04;;;;;;;1.73;1.65;;;;;;;8.79;75.62;97549.03;5030677;28;20676;-57
2024/01/16 09:00:29;;;;;;;3.53;2.30;;;;;;;8.84;75.41;97553.84;5030833;28;20186;-57
2024/01/16 09:02:55;;;;;;;3.20;2.90;;;;;;;8.79;76.06;97551.63;5030832;28;20218;-57
2024/01/16 09:05:25;;;;;;;3.30;3.10;;;;;;;8.42;74.81;97477.97;5030771;28;20181;-58
2024/01/16 09:07:50;;;;;;;2.50;2.10;;;;;;;8.92;72.77;97546.38;5030814;28;20201;-57
2024/01/16 09:10:17;;;;;;;3.20;3.00;;;;;;;8.55;71.15;97489.00;5030810;28;20712;-58
2024/01/16 09:12:42;;;;;;;1.83;1.73;;;;;;;8.92;69.86;97548.94;5030735;28;20276;-58
2024/01/16 09:15:08;;;;;;;2.65;2.45;;;;;;;9.02;69.75;97579.09;5030661;28;20664;-59
2024/01/16 09:17:34;;;;;;;2.15;1.70;;;;;;;9.01;68.38;97567.13;5030685;28;20253;-58
2024/01/16 09:19:59;;;;;;;1.23;1.23;;;;;;;8.80;65.66;97542.94;5045759;28;20214;-58
2024/01/16 09:22:24;;;;;;;1.77;1.42;;;;;;;8.45;63.77;97493.19;5049957;28;20255;-58
2024/01/16 09:24:50;;;;;;;1.30;1.30;;;;;;;8.76;63.05;97551.88;5049586;28;20190;-58
2024/01/16 09:27:16;;;;;;;1.33;1.33;;;;;;;8.68;63.17;97536.13;5050249;28;20272;-56
2024/01/16 09:29:42;;;;;;;1.50;1.40;;;;;;;8.58;62.33;97532.63;5082838;28;20245;-59
2024/01/16 09:32:07;;;;;;;1.90;1.70;;;;;;;8.44;62.94;97512.19;5087593;28;20189;-58
2024/01/16 09:34:33;;;;;;;1.55;1.45;;;;;;;8.45;61.51;97524.13;5081260;28;20259;-58
2024/01/16 09:37:00;;;;;;;1.02;1.02;;;;;;;8.32;61.99;97489.09;5071146;28;20178;-59
2024/01/16 09:39:26;;;;;;;1.13;1.10;;;;;;;8.72;62.12;97568.50;5072118;28;20203;-59
2024/01/16 09:41:52;;;;;;;1.60;1.50;;;;;;;8.89;60.99;97583.53;5072224;28;20177;-58
2024/01/16 09:44:19;;;;;;;1.33;1.27;;;;;;;8.86;60.56;97576.00;5072201;28;20169;-58
2024/01/16 09:46:49;;;;;;;1.30;1.30;;;;;;;9.05;60.55;97596.94;5072181;28;20181;-59
2024/01/16 09:49:17;;;;;;;1.00;1.00;;;;;;;8.71;59.67;97527.34;5072150;28;20248;-58
2024/01/16 09:51:43;;;;;;;1.30;1.27;;;;;;;9.26;58.85;97604.81;5072026;28;20169;-59
2024/01/16 09:54:09;;;;;;;1.15;1.15;;;;;;;9.21;58.83;97594.81;5071989;28;20181;-58
2024/01/16 09:56:38;;;;;;;1.27;1.27;;;;;;;8.81;57.61;97513.66;5072036;28;20550;-58
2024/01/16 09:59:06;;;;;;;1.40;1.40;;;;;;;9.23;57.38;97594.72;5071898;28;20250;-58
2024/01/16 10:01:33;;;;;;;3.20;2.28;;;;;;;8.87;58.30;97533.84;5071894;28;20178;-58
2024/01/16 10:03:59;;;;;;;1.95;1.85;;;;;;;9.21;58.34;97605.13;5071540;28;20184;-58
2024/01/16 10:06:27;;;;;;;1.60;1.50;;;;;;;9.12;57.35;97579.22;5071886;28;20173;-58
2024/01/16 10:08:53;;;;;;;1.50;1.40;;;;;;;9.12;57.14;97577.47;5071505;28;20498;-59
2024/01/16 10:11:18;;;;;;;1.10;1.10;;;;;;;9.30;56.24;97593.28;5070202;28;20204;-59
2024/01/16 10:13:48;;;;;;;2.13;1.60;;;;;;;9.45;56.27;97608.47;5071711;28;20525;-58
2024/01/16 10:16:13;;;;;;;1.30;1.10;;;;;;;9.47;55.49;97627.22;5071716;28;20188;-59
2024/01/16 10:18:38;;;;;;;1.00;1.00;;;;;;;9.21;53.79;97592.22;5071653;28;20222;-59
2024/01/16 10:21:04;;;;;;;1.10;1.10;;;;;;;9.50;53.13;97642.47;5071614;28;20519;-58
2024/01/16 10:23:34;;;;;;;1.00;0.90;;;;;;;9.57;53.77;97630.75;5071605;28;20173;-59
2024/01/16 10:26:06;;;;;;;1.33;1.23;;;;;;;9.38;53.21;97614.22;5071656;28;20262;-58
2024/01/16 10:28:34;;;;;;;1.00;1.00;;;;;;;9.46;52.57;97625.59;5071596;28;20212;-58
2024/01/16 10:31:08;;;;;;;0.90;0.90;;;;;;;9.37;51.51;97618.53;5070635;28;20585;-58
2024/01/16 10:33:34;;;;;;;1.05;1.00;;;;;;;9.37;52.20;97631.44;5071394;28;20256;-59
2024/01/16 10:36:11;;;;;;;0.93;0.93;;;;;;;9.34;51.91;97647.19;5071742;28;20635;-58
2024/01/16 10:38:38;;;;;;;1.20;1.20;;;;;;;8.78;53.15;97565.47;5049002;28;20213;-58
2024/01/16 10:41:06;;;;;;;3.42;1.35;;;;;;;9.23;51.97;97643.75;5049203;28;20197;-58
2024/01/16 10:43:31;;;;;;;1.85;1.20;;;;;;;9.25;52.16;97658.19;5049129;28;20190;-58
2024/01/16 10:46:12;;;;;;;1.48;1.48;;;;;;;9.23;52.89;97660.06;5049198;28;20189;-58
2024/01/16 10:48:39;;;;;;;1.13;1.00;;;;;;;9.21;52.21;97659.34;5050715;28;20287;-58
2024/01/16 10:51:19;;;;;;;1.20;1.20;;;;;;;8.97;52.68;97632.78;5063123;28;20216;-58
2024/01/16 10:53:46;;;;;;;1.50;1.45;;;;;;;9.08;52.57;97640.56;5053017;28;20242;-58
2024/01/16 10:56:12;;;;;;;1.25;1.25;;;;;;;9.01;52.14;97626.47;5052929;28;20805;-58
2024/01/16 10:58:42;;;;;;;1.13;1.13;;;;;;;8.89;51.99;97608.50;5051537;28;20220;-58
2024/01/16 11:01:14;;;;;;;0.90;0.90;;;;;;;8.85;51.76;97597.59;5052795;28;20243;-59
2024/01/16 11:03:50;;;;;;;2.05;1.60;;;;;;;8.98;52.08;97607.81;5033005;28;20241;-58
2024/01/16 11:06:17;;;;;;;1.35;1.25;;;;;;;9.04;52.27;97628.00;5033068;28;20191;-58
2024/01/16 11:08:46;;;;;;;1.05;1.05;;;;;;;9.14;52.36;97629.78;5034541;28;20183;-59
2024/01/16 11:11:13;;;;;;;1.20;1.10;;;;;;;9.27;51.37;97625.31;5052968;28;20177;-58
2024/01/16 11:13:41;;;;;;;1.00;1.00;;;;;;;8.95;51.20;97569.34;5052808;28;20189;-58
2024/01/16 11:16:10;;;;;;;1.77;1.67;;;;;;;9.47;50.88;97634.97;5052734;28;20185;-58
2024/01/16 11:18:36;;;;;;;0.80;0.80;;;;;;;9.53;50.46;97632.72;5052508;28;20224;-58
2024/01/16 11:21:04;;;;;;;1.15;1.13;;;;;;;9.61;49.77;97624.41;5052670;28;20178;-58
2024/01/16 11:23:30;;;;;;;2.17;1.98;;;;;;;9.98;50.10;97659.38;4993188;28;20698;-58
2024/01/16 11:25:55;;;;;;;1.95;1.83;;;;;;;10.05;48.75;97666.53;4993306;28;20192;-58
2024/01/16 11:28:28;;;;;;;1.80;1.70;;;;;;;10.23;48.50;97690.97;4993279;28;20202;-58